sensor_id;sensor_type;location;lat;lon;timestamp;temperature;humidity
48806;DHT22;34625;47.176;27.548;2023-10-19T00:00:49;23.60;52.80
48806;DHT22;34625;47.176;27.548;2023-10-19T00:03:19;23.60;52.80
48806;DHT22;34625;47.176;27.548;2023-10-19T00:05:45;23.60;52.80
48806;DHT22;34625;47.176;27.548;2023-10-19T00:08:13;23.60;52.90
48806;DHT22;34625;47.176;27.548;2023-10-19T00:10:40;23.50;52.90
48806;DHT22;34625;47.176;27.548;2023-10-19T00:13:09;23.60;52.90
48806;DHT22;34625;47.176;27.548;2023-10-19T00:15:41;23.60;52.90
48806;DHT22;34625;47.176;27.548;2023-10-19T00:18:28;23.50;53.00
48806;DHT22;34625;47.176;27.548;2023-10-19T00:20:58;23.50;53.00
48806;DHT22;34625;47.176;27.548;2023-10-19T00:23:45;23.30;52.90
48806;DHT22;34625;47.176;27.548;2023-10-19T00:26:13;23.50;53.00
48806;DHT22;34625;47.176;27.548;2023-10-19T00:28:53;23.50;53.10
48806;DHT22;34625;47.176;27.548;2023-10-19T00:31:22;23.40;52.90
48806;DHT22;34625;47.176;27.548;2023-10-19T00:33:48;23.40;53.00
48806;DHT22;34625;47.176;27.548;2023-10-19T00:36:17;23.50;53.00
48806;DHT22;34625;47.176;27.548;2023-10-19T00:38:47;23.40;52.90
48806;DHT22;34625;47.176;27.548;2023-10-19T00:41:13;23.40;52.80
48806;DHT22;34625;47.176;27.548;2023-10-19T00:43:43;23.50;52.90
48806;DHT22;34625;47.176;27.548;2023-10-19T00:46:12;23.60;52.90
48806;DHT22;34625;47.176;27.548;2023-10-19T00:49:04;23.50;52.90
48806;DHT22;34625;47.176;27.548;2023-10-19T00:51:44;23.50;52.80
48806;DHT22;34625;47.176;27.548;2023-10-19T00:54:28;23.50;52.80
48806;DHT22;34625;47.176;27.548;2023-10-19T00:57:02;23.50;52.80
48806;DHT22;34625;47.176;27.548;2023-10-19T00:59:40;23.50;52.80
48806;DHT22;34625;47.176;27.548;2023-10-19T01:02:20;23.40;52.70
48806;DHT22;34625;47.176;27.548;2023-10-19T01:04:56;23.50;52.90
48806;DHT22;34625;47.176;27.548;2023-10-19T01:07:28;23.30;52.80
48806;DHT22;34625;47.176;27.548;2023-10-19T01:10:00;23.30;52.90
48806;DHT22;34625;47.176;27.548;2023-10-19T01:12:27;23.30;52.90
48806;DHT22;34625;47.176;27.548;2023-10-19T01:15:18;23.30;52.90
48806;DHT22;34625;47.176;27.548;2023-10-19T01:17:55;23.30;53.00
48806;DHT22;34625;47.176;27.548;2023-10-19T01:20:32;23.30;53.00
48806;DHT22;34625;47.176;27.548;2023-10-19T01:23:05;23.20;52.90
48806;DHT22;34625;47.176;27.548;2023-10-19T01:25:52;23.30;53.00
48806;DHT22;34625;47.176;27.548;2023-10-19T01:28:51;23.30;52.90
48806;DHT22;34625;47.176;27.548;2023-10-19T01:31:27;23.40;52.90
48806;DHT22;34625;47.176;27.548;2023-10-19T01:33:56;23.40;52.90
48806;DHT22;34625;47.176;27.548;2023-10-19T01:36:26;23.40;52.90
48806;DHT22;34625;47.176;27.548;2023-10-19T01:38:53;23.30;52.80
48806;DHT22;34625;47.176;27.548;2023-10-19T01:41:21;23.40;52.80
48806;DHT22;34625;47.176;27.548;2023-10-19T01:43:49;23.30;52.80
48806;DHT22;34625;47.176;27.548;2023-10-19T01:46:17;23.50;52.90
48806;DHT22;34625;47.176;27.548;2023-10-19T01:48:57;23.40;52.70
48806;DHT22;34625;47.176;27.548;2023-10-19T01:51:25;23.40;52.70
48806;DHT22;34625;47.176;27.548;2023-10-19T01:53:58;23.40;52.70
48806;DHT22;34625;47.176;27.548;2023-10-19T01:56:26;23.30;52.70
48806;DHT22;34625;47.176;27.548;2023-10-19T01:58:53;23.40;52.80
48806;DHT22;34625;47.176;27.548;2023-10-19T02:01:20;23.20;52.70
48806;DHT22;34625;47.176;27.548;2023-10-19T02:03:56;23.30;52.80
48806;DHT22;34625;47.176;27.548;2023-10-19T02:06:30;23.30;52.80
48806;DHT22;34625;47.176;27.548;2023-10-19T02:09:13;23.30;52.80
48806;DHT22;34625;47.176;27.548;2023-10-19T02:11:50;23.20;52.70
48806;DHT22;34625;47.176;27.548;2023-10-19T02:14:19;23.30;52.80
48806;DHT22;34625;47.176;27.548;2023-10-19T02:16:47;23.20;52.70
48806;DHT22;34625;47.176;27.548;2023-10-19T02:19:16;23.10;52.70
48806;DHT22;34625;47.176;27.548;2023-10-19T02:21:43;23.20;52.60
48806;DHT22;34625;47.176;27.548;2023-10-19T02:24:13;23.20;52.60
48806;DHT22;34625;47.176;27.548;2023-10-19T02:26:41;23.30;52.60
48806;DHT22;34625;47.176;27.548;2023-10-19T02:29:07;23.30;52.60
48806;DHT22;34625;47.176;27.548;2023-10-19T02:31:40;23.20;52.40
48806;DHT22;34625;47.176;27.548;2023-10-19T02:34:08;23.20;52.40
48806;DHT22;34625;47.176;27.548;2023-10-19T02:36:37;23.30;52.40
48806;DHT22;34625;47.176;27.548;2023-10-19T02:39:09;23.20;52.30
48806;DHT22;34625;47.176;27.548;2023-10-19T02:41:36;23.30;52.30
48806;DHT22;34625;47.176;27.548;2023-10-19T02:44:09;23.20;52.10
48806;DHT22;34625;47.176;27.548;2023-10-19T02:46:36;23.30;52.20
48806;DHT22;34625;47.176;27.548;2023-10-19T02:49:09;23.20;52.00
48806;DHT22;34625;47.176;27.548;2023-10-19T02:51:42;23.20;52.10
48806;DHT22;34625;47.176;27.548;2023-10-19T02:54:13;23.40;52.20
48806;DHT22;34625;47.176;27.548;2023-10-19T02:56:53;23.20;52.10
48806;DHT22;34625;47.176;27.548;2023-10-19T02:59:21;23.20;52.10
48806;DHT22;34625;47.176;27.548;2023-10-19T03:01:56;23.20;52.20
48806;DHT22;34625;47.176;27.548;2023-10-19T03:04:34;23.20;52.20
48806;DHT22;34625;47.176;27.548;2023-10-19T03:07:05;23.00;52.10
48806;DHT22;34625;47.176;27.548;2023-10-19T03:09:31;23.10;52.10
48806;DHT22;34625;47.176;27.548;2023-10-19T03:12:04;23.30;52.20
48806;DHT22;34625;47.176;27.548;2023-10-19T03:14:35;23.20;52.10
48806;DHT22;34625;47.176;27.548;2023-10-19T03:17:01;23.20;52.10
48806;DHT22;34625;47.176;27.548;2023-10-19T03:19:27;23.20;52.10
48806;DHT22;34625;47.176;27.548;2023-10-19T03:21:54;23.10;52.20
48806;DHT22;34625;47.176;27.548;2023-10-19T03:24:26;23.00;52.10
48806;DHT22;34625;47.176;27.548;2023-10-19T03:27:08;23.10;52.20
48806;DHT22;34625;47.176;27.548;2023-10-19T03:29:45;23.10;52.20
48806;DHT22;34625;47.176;27.548;2023-10-19T03:32:12;22.90;52.10
48806;DHT22;34625;47.176;27.548;2023-10-19T03:34:38;23.00;52.00
48806;DHT22;34625;47.176;27.548;2023-10-19T03:37:04;22.90;52.00
48806;DHT22;34625;47.176;27.548;2023-10-19T03:39:38;23.00;52.00
48806;DHT22;34625;47.176;27.548;2023-10-19T03:42:05;23.00;52.10
48806;DHT22;34625;47.176;27.548;2023-10-19T03:44:35;23.00;52.00
48806;DHT22;34625;47.176;27.548;2023-10-19T03:47:13;23.20;51.90
48806;DHT22;34625;47.176;27.548;2023-10-19T03:49:44;23.10;51.90
48806;DHT22;34625;47.176;27.548;2023-10-19T03:52:10;23.20;51.80
48806;DHT22;34625;47.176;27.548;2023-10-19T03:54:37;23.10;51.70
48806;DHT22;34625;47.176;27.548;2023-10-19T03:57:08;23.20;51.70
48806;DHT22;34625;47.176;27.548;2023-10-19T03:59:55;23.20;51.80
48806;DHT22;34625;47.176;27.548;2023-10-19T04:02:25;23.20;51.90
48806;DHT22;34625;47.176;27.548;2023-10-19T04:04:52;23.30;52.00
48806;DHT22;34625;47.176;27.548;2023-10-19T04:07:21;23.30;53.50
48806;DHT22;34625;47.176;27.548;2023-10-19T04:09:48;23.40;51.10
48806;DHT22;34625;47.176;27.548;2023-10-19T04:12:37;23.40;48.60
48806;DHT22;34625;47.176;27.548;2023-10-19T04:15:06;23.50;46.30
48806;DHT22;34625;47.176;27.548;2023-10-19T04:17:40;23.50;46.70
48806;DHT22;34625;47.176;27.548;2023-10-19T04:20:12;23.50;45.00
48806;DHT22;34625;47.176;27.548;2023-10-19T04:22:41;23.80;49.40
48806;DHT22;34625;47.176;27.548;2023-10-19T04:25:07;24.40;53.90
48806;DHT22;34625;47.176;27.548;2023-10-19T04:27:34;24.60;56.10
48806;DHT22;34625;47.176;27.548;2023-10-19T04:30:03;24.50;50.90
48806;DHT22;34625;47.176;27.548;2023-10-19T04:32:29;24.30;50.20
48806;DHT22;34625;47.176;27.548;2023-10-19T04:34:57;24.20;50.10
48806;DHT22;34625;47.176;27.548;2023-10-19T04:37:24;24.20;50.10
48806;DHT22;34625;47.176;27.548;2023-10-19T04:39:50;24.10;50.30
48806;DHT22;34625;47.176;27.548;2023-10-19T04:42:16;24.00;50.40
48806;DHT22;34625;47.176;27.548;2023-10-19T04:44:42;24.00;50.60
48806;DHT22;34625;47.176;27.548;2023-10-19T04:47:08;24.00;50.80
48806;DHT22;34625;47.176;27.548;2023-10-19T04:49:34;23.90;50.90
48806;DHT22;34625;47.176;27.548;2023-10-19T04:52:00;24.00;51.10
48806;DHT22;34625;47.176;27.548;2023-10-19T04:54:26;23.90;51.30
48806;DHT22;34625;47.176;27.548;2023-10-19T04:56:53;24.00;51.50
48806;DHT22;34625;47.176;27.548;2023-10-19T04:59:21;24.00;51.80
48806;DHT22;34625;47.176;27.548;2023-10-19T05:01:47;24.00;51.80
48806;DHT22;34625;47.176;27.548;2023-10-19T05:04:13;24.00;52.10
48806;DHT22;34625;47.176;27.548;2023-10-19T05:06:39;24.00;52.00
48806;DHT22;34625;47.176;27.548;2023-10-19T05:09:05;23.90;51.70
48806;DHT22;34625;47.176;27.548;2023-10-19T05:11:31;24.00;51.70
48806;DHT22;34625;47.176;27.548;2023-10-19T05:13:57;23.90;47.20
48806;DHT22;34625;47.176;27.548;2023-10-19T05:16:23;23.90;45.50
48806;DHT22;34625;47.176;27.548;2023-10-19T05:18:49;23.90;45.30
48806;DHT22;34625;47.176;27.548;2023-10-19T05:21:15;23.90;45.30
48806;DHT22;34625;47.176;27.548;2023-10-19T05:23:41;23.90;43.80
48806;DHT22;34625;47.176;27.548;2023-10-19T05:26:07;23.80;43.30
48806;DHT22;34625;47.176;27.548;2023-10-19T05:28:33;23.90;43.30
48806;DHT22;34625;47.176;27.548;2023-10-19T05:30:59;23.80;43.20
48806;DHT22;34625;47.176;27.548;2023-10-19T05:33:27;23.80;44.20
48806;DHT22;34625;47.176;27.548;2023-10-19T05:35:55;23.90;49.10
48806;DHT22;34625;47.176;27.548;2023-10-19T05:38:21;23.90;53.30
48806;DHT22;34625;47.176;27.548;2023-10-19T05:40:48;24.00;53.60
48806;DHT22;34625;47.176;27.548;2023-10-19T05:43:16;23.90;54.20
48806;DHT22;34625;47.176;27.548;2023-10-19T05:45:43;23.90;53.90
48806;DHT22;34625;47.176;27.548;2023-10-19T05:48:10;24.00;52.90
48806;DHT22;34625;47.176;27.548;2023-10-19T05:50:37;23.90;52.30
48806;DHT22;34625;47.176;27.548;2023-10-19T05:53:03;23.90;51.90
48806;DHT22;34625;47.176;27.548;2023-10-19T05:55:31;23.90;51.70
48806;DHT22;34625;47.176;27.548;2023-10-19T05:57:59;23.80;53.20
48806;DHT22;34625;47.176;27.548;2023-10-19T06:00:25;23.90;52.80
48806;DHT22;34625;47.176;27.548;2023-10-19T06:02:54;23.90;52.10
48806;DHT22;34625;47.176;27.548;2023-10-19T06:05:20;23.90;51.80
48806;DHT22;34625;47.176;27.548;2023-10-19T06:07:47;23.90;51.70
48806;DHT22;34625;47.176;27.548;2023-10-19T06:10:18;23.90;51.70
48806;DHT22;34625;47.176;27.548;2023-10-19T06:12:47;23.90;51.70
48806;DHT22;34625;47.176;27.548;2023-10-19T06:15:14;23.90;51.80
48806;DHT22;34625;47.176;27.548;2023-10-19T06:17:41;23.80;51.70
48806;DHT22;34625;47.176;27.548;2023-10-19T06:20:10;23.90;51.90
48806;DHT22;34625;47.176;27.548;2023-10-19T06:22:56;24.00;52.00
48806;DHT22;34625;47.176;27.548;2023-10-19T06:25:25;23.90;52.10
48806;DHT22;34625;47.176;27.548;2023-10-19T06:27:52;23.90;51.90
48806;DHT22;34625;47.176;27.548;2023-10-19T06:30:19;23.90;52.00
48806;DHT22;34625;47.176;27.548;2023-10-19T06:32:59;23.80;51.90
48806;DHT22;34625;47.176;27.548;2023-10-19T06:35:27;23.90;52.20
48806;DHT22;34625;47.176;27.548;2023-10-19T06:37:53;23.80;52.10
48806;DHT22;34625;47.176;27.548;2023-10-19T06:40:21;24.00;52.30
48806;DHT22;34625;47.176;27.548;2023-10-19T06:42:48;23.90;52.50
48806;DHT22;34625;47.176;27.548;2023-10-19T06:45:16;23.70;52.50
48806;DHT22;34625;47.176;27.548;2023-10-19T06:47:46;23.90;52.70
48806;DHT22;34625;47.176;27.548;2023-10-19T06:50:15;23.90;52.80
48806;DHT22;34625;47.176;27.548;2023-10-19T06:52:42;23.70;53.10
48806;DHT22;34625;47.176;27.548;2023-10-19T06:55:09;23.80;53.30
48806;DHT22;34625;47.176;27.548;2023-10-19T06:57:54;23.70;53.60
48806;DHT22;34625;47.176;27.548;2023-10-19T07:00:27;23.80;53.90
48806;DHT22;34625;47.176;27.548;2023-10-19T07:02:56;23.60;53.80
48806;DHT22;34625;47.176;27.548;2023-10-19T07:05:23;23.50;53.90
48806;DHT22;34625;47.176;27.548;2023-10-19T07:08:07;23.80;54.00
48806;DHT22;34625;47.176;27.548;2023-10-19T07:10:33;23.70;54.00
48806;DHT22;34625;47.176;27.548;2023-10-19T07:13:00;23.60;53.90
48806;DHT22;34625;47.176;27.548;2023-10-19T07:15:26;23.70;54.00
48806;DHT22;34625;47.176;27.548;2023-10-19T07:17:54;23.80;54.00
48806;DHT22;34625;47.176;27.548;2023-10-19T07:20:21;23.70;54.00
48806;DHT22;34625;47.176;27.548;2023-10-19T07:22:57;23.80;54.00
48806;DHT22;34625;47.176;27.548;2023-10-19T07:25:25;23.80;53.80
48806;DHT22;34625;47.176;27.548;2023-10-19T07:27:52;23.70;53.90
48806;DHT22;34625;47.176;27.548;2023-10-19T07:30:19;23.70;53.80
48806;DHT22;34625;47.176;27.548;2023-10-19T07:32:52;23.80;54.00
48806;DHT22;34625;47.176;27.548;2023-10-19T07:35:27;23.80;54.10
48806;DHT22;34625;47.176;27.548;2023-10-19T07:37:54;23.80;54.20
48806;DHT22;34625;47.176;27.548;2023-10-19T07:40:21;23.80;54.20
48806;DHT22;34625;47.176;27.548;2023-10-19T07:42:48;23.70;53.90
48806;DHT22;34625;47.176;27.548;2023-10-19T07:45:15;23.70;53.80
48806;DHT22;34625;47.176;27.548;2023-10-19T07:47:42;23.80;54.00
48806;DHT22;34625;47.176;27.548;2023-10-19T07:50:09;23.70;54.00
48806;DHT22;34625;47.176;27.548;2023-10-19T07:52:45;23.80;54.10
48806;DHT22;34625;47.176;27.548;2023-10-19T07:55:15;23.80;54.40
48806;DHT22;34625;47.176;27.548;2023-10-19T07:57:42;23.80;54.60
48806;DHT22;34625;47.176;27.548;2023-10-19T08:00:09;23.80;54.50
48806;DHT22;34625;47.176;27.548;2023-10-19T08:02:36;23.80;54.50
48806;DHT22;34625;47.176;27.548;2023-10-19T08:05:04;23.80;54.00
48806;DHT22;34625;47.176;27.548;2023-10-19T08:07:32;23.80;54.10
48806;DHT22;34625;47.176;27.548;2023-10-19T08:10:00;23.80;54.00
48806;DHT22;34625;47.176;27.548;2023-10-19T08:12:28;23.80;54.90
48806;DHT22;34625;47.176;27.548;2023-10-19T08:14:54;23.80;55.50
48806;DHT22;34625;47.176;27.548;2023-10-19T08:17:21;23.90;55.00
48806;DHT22;34625;47.176;27.548;2023-10-19T08:19:47;23.80;54.40
48806;DHT22;34625;47.176;27.548;2023-10-19T08:22:13;23.90;54.20
48806;DHT22;34625;47.176;27.548;2023-10-19T08:24:41;23.80;54.00
48806;DHT22;34625;47.176;27.548;2023-10-19T08:27:09;23.90;54.30
48806;DHT22;34625;47.176;27.548;2023-10-19T08:29:37;23.80;54.30
48806;DHT22;34625;47.176;27.548;2023-10-19T08:32:03;23.90;55.10
48806;DHT22;34625;47.176;27.548;2023-10-19T08:34:34;24.10;54.00
48806;DHT22;34625;47.176;27.548;2023-10-19T08:37:04;24.10;53.10
48806;DHT22;34625;47.176;27.548;2023-10-19T08:39:31;24.20;53.60
48806;DHT22;34625;47.176;27.548;2023-10-19T08:42:04;24.30;54.80
48806;DHT22;34625;47.176;27.548;2023-10-19T08:44:31;24.30;53.60
48806;DHT22;34625;47.176;27.548;2023-10-19T08:46:57;24.40;53.40
48806;DHT22;34625;47.176;27.548;2023-10-19T08:49:25;24.40;55.10
48806;DHT22;34625;47.176;27.548;2023-10-19T08:51:55;24.40;51.10
48806;DHT22;34625;47.176;27.548;2023-10-19T08:54:22;24.40;51.90
48806;DHT22;34625;47.176;27.548;2023-10-19T08:56:48;24.50;52.00
48806;DHT22;34625;47.176;27.548;2023-10-19T08:59:14;24.40;52.00
48806;DHT22;34625;47.176;27.548;2023-10-19T09:01:43;24.50;52.20
48806;DHT22;34625;47.176;27.548;2023-10-19T09:04:12;24.50;52.40
48806;DHT22;34625;47.176;27.548;2023-10-19T09:06:42;24.30;52.30
48806;DHT22;34625;47.176;27.548;2023-10-19T09:09:09;24.50;52.50
48806;DHT22;34625;47.176;27.548;2023-10-19T09:11:48;24.50;52.70
48806;DHT22;34625;47.176;27.548;2023-10-19T09:14:15;24.50;52.70
48806;DHT22;34625;47.176;27.548;2023-10-19T09:16:57;24.50;52.80
48806;DHT22;34625;47.176;27.548;2023-10-19T09:19:40;24.50;52.80
48806;DHT22;34625;47.176;27.548;2023-10-19T09:22:08;24.50;53.40
48806;DHT22;34625;47.176;27.548;2023-10-19T09:24:43;24.50;53.40
48806;DHT22;34625;47.176;27.548;2023-10-19T09:27:11;24.50;53.20
48806;DHT22;34625;47.176;27.548;2023-10-19T09:29:38;24.50;53.20
48806;DHT22;34625;47.176;27.548;2023-10-19T09:32:05;24.40;53.10
48806;DHT22;34625;47.176;27.548;2023-10-19T09:34:33;24.50;54.90
48806;DHT22;34625;47.176;27.548;2023-10-19T09:37:01;24.70;56.10
48806;DHT22;34625;47.176;27.548;2023-10-19T09:39:30;25.00;59.60
48806;DHT22;34625;47.176;27.548;2023-10-19T09:42:05;25.20;61.50
48806;DHT22;34625;47.176;27.548;2023-10-19T09:44:42;25.20;57.20
48806;DHT22;34625;47.176;27.548;2023-10-19T09:50:01;25.00;59.30
48806;DHT22;34625;47.176;27.548;2023-10-19T09:52:28;25.20;64.10
48806;DHT22;34625;47.176;27.548;2023-10-19T09:55:27;25.60;59.70
48806;DHT22;34625;47.176;27.548;2023-10-19T09:58:17;26.00;57.60
48806;DHT22;34625;47.176;27.548;2023-10-19T10:00:46;26.00;56.80
48806;DHT22;34625;47.176;27.548;2023-10-19T10:03:46;25.90;57.50
48806;DHT22;34625;47.176;27.548;2023-10-19T10:06:14;25.80;54.00
48806;DHT22;34625;47.176;27.548;2023-10-19T10:08:42;25.70;49.50
48806;DHT22;34625;47.176;27.548;2023-10-19T10:11:18;25.80;52.20
48806;DHT22;34625;47.176;27.548;2023-10-19T10:13:45;25.70;52.20
48806;DHT22;34625;47.176;27.548;2023-10-19T10:16:14;25.60;51.80
48806;DHT22;34625;47.176;27.548;2023-10-19T10:18:41;25.60;51.40
48806;DHT22;34625;47.176;27.548;2023-10-19T10:21:15;25.60;51.40
48806;DHT22;34625;47.176;27.548;2023-10-19T10:23:55;25.50;51.50
48806;DHT22;34625;47.176;27.548;2023-10-19T10:26:25;25.60;51.60
48806;DHT22;34625;47.176;27.548;2023-10-19T10:31:44;25.50;51.50
48806;DHT22;34625;47.176;27.548;2023-10-19T10:37:08;25.40;51.50
48806;DHT22;34625;47.176;27.548;2023-10-19T10:39:35;25.50;51.50
48806;DHT22;34625;47.176;27.548;2023-10-19T10:42:07;25.40;51.60
48806;DHT22;34625;47.176;27.548;2023-10-19T10:44:44;25.40;51.60
48806;DHT22;34625;47.176;27.548;2023-10-19T10:47:12;25.30;53.70
48806;DHT22;34625;47.176;27.548;2023-10-19T10:52:33;25.40;49.50
48806;DHT22;34625;47.176;27.548;2023-10-19T10:55:20;25.40;50.50
48806;DHT22;34625;47.176;27.548;2023-10-19T10:57:46;25.40;52.10
48806;DHT22;34625;47.176;27.548;2023-10-19T11:00:13;25.50;51.90
48806;DHT22;34625;47.176;27.548;2023-10-19T11:02:45;25.50;48.60
48806;DHT22;34625;47.176;27.548;2023-10-19T11:05:16;25.60;54.60
48806;DHT22;34625;47.176;27.548;2023-10-19T11:10:30;25.40;53.60
48806;DHT22;34625;47.176;27.548;2023-10-19T11:13:05;25.40;52.90
48806;DHT22;34625;47.176;27.548;2023-10-19T11:15:32;25.40;52.20
48806;DHT22;34625;47.176;27.548;2023-10-19T11:17:59;25.40;52.10
48806;DHT22;34625;47.176;27.548;2023-10-19T11:20:26;25.30;52.00
48806;DHT22;34625;47.176;27.548;2023-10-19T11:22:56;25.30;51.90
48806;DHT22;34625;47.176;27.548;2023-10-19T11:25:23;25.30;51.80
48806;DHT22;34625;47.176;27.548;2023-10-19T11:27:50;25.40;51.70
48806;DHT22;34625;47.176;27.548;2023-10-19T11:30:27;25.30;51.50
48806;DHT22;34625;47.176;27.548;2023-10-19T11:32:54;25.30;51.50
48806;DHT22;34625;47.176;27.548;2023-10-19T11:35:26;25.30;51.50
48806;DHT22;34625;47.176;27.548;2023-10-19T11:37:55;25.10;53.60
48806;DHT22;34625;47.176;27.548;2023-10-19T11:40:22;25.20;53.60
48806;DHT22;34625;47.176;27.548;2023-10-19T11:42:49;25.20;53.30
48806;DHT22;34625;47.176;27.548;2023-10-19T11:45:17;25.10;53.10
48806;DHT22;34625;47.176;27.548;2023-10-19T11:47:44;25.10;53.00
48806;DHT22;34625;47.176;27.548;2023-10-19T11:50:11;25.10;52.80
48806;DHT22;34625;47.176;27.548;2023-10-19T11:52:45;25.10;52.70
48806;DHT22;34625;47.176;27.548;2023-10-19T11:55:15;25.00;52.50
48806;DHT22;34625;47.176;27.548;2023-10-19T11:57:42;25.00;51.80
48806;DHT22;34625;47.176;27.548;2023-10-19T12:00:13;25.00;51.70
48806;DHT22;34625;47.176;27.548;2023-10-19T12:02:49;25.00;51.40
48806;DHT22;34625;47.176;27.548;2023-10-19T12:05:15;25.10;51.50
48806;DHT22;34625;47.176;27.548;2023-10-19T12:07:41;25.10;51.60
48806;DHT22;34625;47.176;27.548;2023-10-19T12:10:11;24.90;51.60
48806;DHT22;34625;47.176;27.548;2023-10-19T12:12:38;25.00;51.70
48806;DHT22;34625;47.176;27.548;2023-10-19T12:15:04;25.00;51.70
48806;DHT22;34625;47.176;27.548;2023-10-19T12:17:34;24.90;51.90
48806;DHT22;34625;47.176;27.548;2023-10-19T12:20:00;25.00;51.90
48806;DHT22;34625;47.176;27.548;2023-10-19T12:22:26;24.90;52.10
48806;DHT22;34625;47.176;27.548;2023-10-19T12:24:56;24.90;52.10
48806;DHT22;34625;47.176;27.548;2023-10-19T12:27:24;24.80;52.00
48806;DHT22;34625;47.176;27.548;2023-10-19T12:29:54;24.90;52.10
48806;DHT22;34625;47.176;27.548;2023-10-19T12:32:21;24.90;52.20
48806;DHT22;34625;47.176;27.548;2023-10-19T12:34:47;24.90;52.20
48806;DHT22;34625;47.176;27.548;2023-10-19T12:37:19;24.90;52.20
48806;DHT22;34625;47.176;27.548;2023-10-19T12:39:45;24.80;52.10
48806;DHT22;34625;47.176;27.548;2023-10-19T12:42:18;24.80;52.10
48806;DHT22;34625;47.176;27.548;2023-10-19T12:44:44;24.80;52.10
48806;DHT22;34625;47.176;27.548;2023-10-19T12:47:10;24.70;52.20
48806;DHT22;34625;47.176;27.548;2023-10-19T12:49:40;24.90;52.30
48806;DHT22;34625;47.176;27.548;2023-10-19T12:52:09;24.80;52.20
48806;DHT22;34625;47.176;27.548;2023-10-19T12:54:36;24.70;52.30
48806;DHT22;34625;47.176;27.548;2023-10-19T12:57:03;24.90;52.40
48806;DHT22;34625;47.176;27.548;2023-10-19T12:59:33;24.70;52.30
48806;DHT22;34625;47.176;27.548;2023-10-19T13:01:59;24.70;52.30
48806;DHT22;34625;47.176;27.548;2023-10-19T13:04:28;24.70;52.30
48806;DHT22;34625;47.176;27.548;2023-10-19T13:06:57;24.70;52.40
48806;DHT22;34625;47.176;27.548;2023-10-19T13:09:26;24.70;52.30
48806;DHT22;34625;47.176;27.548;2023-10-19T13:12:00;24.60;52.30
48806;DHT22;34625;47.176;27.548;2023-10-19T13:14:27;24.80;52.40
48806;DHT22;34625;47.176;27.548;2023-10-19T13:16:53;24.60;52.30
48806;DHT22;34625;47.176;27.548;2023-10-19T13:19:23;24.60;52.30
48806;DHT22;34625;47.176;27.548;2023-10-19T13:21:52;24.60;52.30
48806;DHT22;34625;47.176;27.548;2023-10-19T13:24:19;24.60;52.30
48806;DHT22;34625;47.176;27.548;2023-10-19T13:26:47;24.60;52.30
48806;DHT22;34625;47.176;27.548;2023-10-19T13:29:14;24.60;52.30
48806;DHT22;34625;47.176;27.548;2023-10-19T13:31:43;24.60;52.30
48806;DHT22;34625;47.176;27.548;2023-10-19T13:34:16;24.60;52.30
48806;DHT22;34625;47.176;27.548;2023-10-19T13:36:42;24.60;52.40
48806;DHT22;34625;47.176;27.548;2023-10-19T13:39:10;24.60;52.40
48806;DHT22;34625;47.176;27.548;2023-10-19T13:41:42;24.60;52.40
48806;DHT22;34625;47.176;27.548;2023-10-19T13:44:08;24.50;52.40
48806;DHT22;34625;47.176;27.548;2023-10-19T13:46:39;24.60;52.40
48806;DHT22;34625;47.176;27.548;2023-10-19T13:49:05;24.50;52.40
48806;DHT22;34625;47.176;27.548;2023-10-19T13:51:31;24.50;52.40
48806;DHT22;34625;47.176;27.548;2023-10-19T13:53:57;24.50;52.40
48806;DHT22;34625;47.176;27.548;2023-10-19T13:56:23;24.50;52.50
48806;DHT22;34625;47.176;27.548;2023-10-19T13:58:51;24.50;52.40
48806;DHT22;34625;47.176;27.548;2023-10-19T14:01:17;24.60;52.40
48806;DHT22;34625;47.176;27.548;2023-10-19T14:03:43;24.60;52.40
48806;DHT22;34625;47.176;27.548;2023-10-19T14:06:13;24.50;52.40
48806;DHT22;34625;47.176;27.548;2023-10-19T14:08:40;24.50;52.50
48806;DHT22;34625;47.176;27.548;2023-10-19T14:11:06;24.30;52.40
48806;DHT22;34625;47.176;27.548;2023-10-19T14:13:34;24.40;52.50
48806;DHT22;34625;47.176;27.548;2023-10-19T14:16:08;24.30;52.60
48806;DHT22;34625;47.176;27.548;2023-10-19T14:18:35;24.30;52.60
48806;DHT22;34625;47.176;27.548;2023-10-19T14:21:10;24.30;52.60
48806;DHT22;34625;47.176;27.548;2023-10-19T14:23:37;24.40;52.70
48806;DHT22;34625;47.176;27.548;2023-10-19T14:26:05;24.30;52.60
48806;DHT22;34625;47.176;27.548;2023-10-19T14:28:31;24.40;52.80
48806;DHT22;34625;47.176;27.548;2023-10-19T14:30:57;24.40;52.00
48806;DHT22;34625;47.176;27.548;2023-10-19T14:33:23;24.50;50.70
48806;DHT22;34625;47.176;27.548;2023-10-19T14:35:49;24.30;49.70
48806;DHT22;34625;47.176;27.548;2023-10-19T14:38:15;24.40;50.10
48806;DHT22;34625;47.176;27.548;2023-10-19T14:40:41;24.30;49.20
48806;DHT22;34625;47.176;27.548;2023-10-19T14:43:11;24.40;46.70
48806;DHT22;34625;47.176;27.548;2023-10-19T14:45:40;24.30;47.00
48806;DHT22;34625;47.176;27.548;2023-10-19T14:48:07;24.40;46.30
48806;DHT22;34625;47.176;27.548;2023-10-19T14:50:36;24.30;51.30
48806;DHT22;34625;47.176;27.548;2023-10-19T14:53:03;24.40;51.20
48806;DHT22;34625;47.176;27.548;2023-10-19T14:55:29;24.20;51.10
48806;DHT22;34625;47.176;27.548;2023-10-19T14:57:55;24.30;51.40
48806;DHT22;34625;47.176;27.548;2023-10-19T15:00:23;24.30;51.60
48806;DHT22;34625;47.176;27.548;2023-10-19T15:02:50;24.30;51.70
48806;DHT22;34625;47.176;27.548;2023-10-19T15:05:17;24.30;51.90
48806;DHT22;34625;47.176;27.548;2023-10-19T15:07:45;24.30;51.80
48806;DHT22;34625;47.176;27.548;2023-10-19T15:10:12;24.40;51.90
48806;DHT22;34625;47.176;27.548;2023-10-19T15:12:41;24.30;51.90
48806;DHT22;34625;47.176;27.548;2023-10-19T15:15:08;24.50;52.00
48806;DHT22;34625;47.176;27.548;2023-10-19T15:17:38;24.40;52.00
48806;DHT22;34625;47.176;27.548;2023-10-19T15:20:06;24.40;52.00
48806;DHT22;34625;47.176;27.548;2023-10-19T15:22:33;24.40;51.90
48806;DHT22;34625;47.176;27.548;2023-10-19T15:24:59;24.50;52.00
48806;DHT22;34625;47.176;27.548;2023-10-19T15:27:26;24.50;52.00
48806;DHT22;34625;47.176;27.548;2023-10-19T15:29:55;24.40;51.80
48806;DHT22;34625;47.176;27.548;2023-10-19T15:32:23;24.50;52.00
48806;DHT22;34625;47.176;27.548;2023-10-19T15:34:50;24.50;52.00
48806;DHT22;34625;47.176;27.548;2023-10-19T15:37:18;24.50;52.00
48806;DHT22;34625;47.176;27.548;2023-10-19T15:39:44;24.40;51.90
48806;DHT22;34625;47.176;27.548;2023-10-19T15:42:10;24.50;52.00
48806;DHT22;34625;47.176;27.548;2023-10-19T15:44:37;24.50;52.00